createdAt,value
2023-01-20T06:19:03.659Z,99607.85
2023-01-20T06:21:31.085Z,99617.57
2023-01-20T06:23:59.322Z,99616.04
2023-01-20T06:26:26.498Z,99611.15
2023-01-20T06:28:58.051Z,99614.52
2023-01-20T06:31:24.855Z,99611.99
2023-01-20T06:33:51.878Z,99619.77
2023-01-20T06:36:20.719Z,99625.90
2023-01-20T06:38:52.799Z,99633.96
2023-01-20T06:41:22.647Z,99630.20
2023-01-20T06:43:53.014Z,99625.17
2023-01-20T06:46:22.391Z,99631.87
2023-01-20T06:48:52.492Z,99638.96
2023-01-20T06:51:22.091Z,99636.84
2023-01-20T06:53:56.488Z,99632.66
2023-01-20T06:56:25.359Z,99625.76
2023-01-20T06:58:53.372Z,99637.71
2023-01-20T07:01:25.340Z,99652.70
2023-01-20T07:03:52.507Z,99648.47
2023-01-20T07:06:39.475Z,99656.50
2023-01-20T07:09:26.793Z,99666.01
2023-01-20T07:12:31.036Z,99668.59
2023-01-20T07:15:06.410Z,99662.54
2023-01-20T07:17:36.982Z,99666.33
2023-01-20T07:20:10.138Z,99662.20
2023-01-20T07:22:39.758Z,99678.55
2023-01-20T07:25:14.168Z,99671.44
2023-01-20T07:27:43.189Z,99663.88
2023-01-20T07:30:12.941Z,99668.39
2023-01-20T07:32:49.280Z,99672.05
2023-01-20T07:35:23.040Z,99667.61
2023-01-20T07:37:55.381Z,99665.93
2023-01-20T07:40:26.026Z,99665.51
2023-01-20T07:43:04.121Z,99663.86
2023-01-20T07:45:35.292Z,99668.36
2023-01-20T07:48:05.040Z,99672.21
2023-01-20T07:50:37.090Z,99668.99
2023-01-20T07:53:05.926Z,99675.15
2023-01-20T07:55:34.343Z,99679.91
2023-01-20T07:58:09.661Z,99684.75
2023-01-20T08:00:37.915Z,99694.98
2023-01-20T08:03:21.722Z,99703.56
2023-01-20T08:05:52.720Z,99708.57
2023-01-20T08:08:26.593Z,99712.64
2023-01-20T08:10:58.366Z,99709.77
2023-01-20T08:13:32.840Z,99704.56
2023-01-20T08:16:08.713Z,99709.02
2023-01-20T08:18:41.609Z,99705.32
2023-01-20T08:21:34.900Z,99707.41
2023-01-20T08:24:12.287Z,99707.41
2023-01-20T08:26:57.793Z,99705.06
2023-01-20T08:29:27.099Z,99708.26
2023-01-20T08:31:54.230Z,99700.55
2023-01-20T08:34:34.741Z,99696.49
2023-01-20T08:37:09.530Z,99700.00
2023-01-20T08:39:43.221Z,99699.05
2023-01-20T08:42:12.673Z,99703.74
2023-01-20T08:44:44.680Z,99702.81
2023-01-20T08:47:12.350Z,99696.40
2023-01-20T08:49:43.823Z,99694.39
2023-01-20T08:52:18.893Z,99693.34
2023-01-20T08:55:14.282Z,99691.45
2023-01-20T08:57:41.858Z,99689.45
2023-01-20T09:00:11.045Z,99694.70
2023-01-20T09:02:40.567Z,99695.72
2023-01-20T09:05:09.551Z,99687.77
2023-01-20T09:07:36.857Z,99691.83
2023-01-20T09:10:04.290Z,99692.19
2023-01-20T09:12:39.229Z,99692.89
2023-01-20T09:15:08.408Z,99686.96
2023-01-20T09:17:36.636Z,99689.93
2023-01-20T09:20:05.724Z,99693.42
2023-01-20T09:22:33.469Z,99693.80
2023-01-20T09:25:01.650Z,99688.00
2023-01-20T09:27:29.425Z,99691.35
2023-01-20T09:29:56.485Z,99694.91
2023-01-20T09:32:24.909Z,99693.14
2023-01-20T09:34:56.946Z,99694.16
2023-01-20T09:37:42.768Z,99699.33
2023-01-20T09:40:44.169Z,99697.25
2023-01-20T09:43:40.365Z,99698.39
2023-01-20T09:46:31.809Z,99704.41
2023-01-20T09:49:35.576Z,99710.09
2023-01-20T09:52:47.496Z,99705.42
2023-01-20T09:55:37.222Z,99698.20
2023-01-20T09:58:14.823Z,99704.50
2023-01-20T10:00:55.823Z,99705.09
2023-01-20T10:03:59.620Z,99709.58
2023-01-20T10:06:32.839Z,99709.54
2023-01-20T10:09:06.652Z,99712.86
2023-01-20T10:11:42.237Z,99716.73
2023-01-20T10:14:26.678Z,99719.23
2023-01-20T10:17:26.424Z,99717.14
2023-01-20T10:20:15.560Z,99711.02
2023-01-20T10:22:52.301Z,99698.36
2023-01-20T10:25:22.222Z,99693.85
2023-01-20T10:28:00.384Z,99694.23
2023-01-20T10:30:32.152Z,99698.66
2023-01-20T10:33:12.111Z,99697.73
2023-01-20T10:35:44.017Z,99699.48
2023-01-20T10:38:34.307Z,99703.35
2023-01-20T10:41:18.084Z,99699.63
2023-01-20T10:43:47.251Z,99700.07
2023-01-20T10:46:24.168Z,99697.17
2023-01-20T10:49:12.607Z,99702.02
2023-01-20T10:52:15.464Z,99694.26
2023-01-20T10:55:09.679Z,99699.26
2023-01-20T10:57:37.775Z,99697.33
2023-01-20T11:00:11.424Z,99694.87
2023-01-20T11:02:39.587Z,99697.57
2023-01-20T11:05:17.428Z,99698.42
2023-01-20T11:07:46.013Z,99701.07
2023-01-20T11:10:22.808Z,99700.35
2023-01-20T11:13:00.060Z,99700.36
2023-01-20T11:15:35.731Z,99706.04
2023-01-20T11:18:22.333Z,99708.63
2023-01-20T11:21:11.629Z,99715.21
2023-01-20T11:23:58.625Z,99713.04
2023-01-20T11:26:34.073Z,99714.98
2023-01-20T11:29:16.742Z,99716.31
2023-01-20T11:31:56.671Z,99715.67
2023-01-20T11:34:35.581Z,99719.48
2023-01-20T11:37:06.081Z,99713.65
2023-01-20T11:39:49.650Z,99719.50
2023-01-20T11:42:24.560Z,99723.39
2023-01-20T11:44:53.065Z,99724.46
2023-01-20T11:47:26.316Z,99721.44
2023-01-20T11:50:11.441Z,99721.84
2023-01-20T11:52:48.442Z,99726.25
2023-01-20T11:55:19.029Z,99720.70
2023-01-20T11:57:56.707Z,99729.20
2023-01-20T12:00:25.048Z,99731.86
2023-01-20T12:03:01.553Z,99731.64
2023-01-20T12:05:54.873Z,99730.48
2023-01-20T12:08:31.703Z,99735.80
2023-01-20T12:11:02.137Z,99738.82
2023-01-20T12:13:55.688Z,99740.63
2023-01-20T12:16:23.872Z,99739.38
2023-01-20T12:19:02.073Z,99734.56
2023-01-20T12:21:35.223Z,99742.42
2023-01-20T12:24:58.701Z,99738.27
2023-01-20T12:27:27.326Z,99735.34
2023-01-20T12:30:00.242Z,99738.39
2023-01-20T12:32:33.500Z,99743.08
2023-01-20T12:35:02.773Z,99741.15
2023-01-20T12:37:43.257Z,99738.68
2023-01-20T12:40:27.264Z,99741.27
2023-01-20T12:43:30.954Z,99748.44
2023-01-20T12:46:26.977Z,99757.08
2023-01-20T12:49:32.345Z,99760.56
2023-01-20T12:52:09.798Z,99760.59
2023-01-20T12:54:48.494Z,99757.92
2023-01-20T12:57:47.130Z,99760.80
2023-01-20T13:00:28.499Z,99762.33
2023-01-20T13:03:36.012Z,99759.07
2023-01-20T13:06:21.906Z,99763.72
2023-01-20T13:09:01.798Z,99763.44
2023-01-20T13:12:21.056Z,99762.16
2023-01-20T13:14:57.407Z,99760.52
2023-01-20T13:17:30.074Z,99762.61
2023-01-20T13:19:57.849Z,99764.92
2023-01-20T13:22:28.499Z,99763.92
2023-01-20T14:40:59.842Z,99770.87
2023-01-20T14:43:30.742Z,99777.37
2023-01-20T14:45:58.632Z,99779.77
2023-01-20T14:48:34.537Z,99779.45
2023-01-20T14:51:04.671Z,99783.39
2023-01-20T14:53:31.575Z,99780.83
2023-01-20T14:56:01.397Z,99782.35
2023-01-20T14:58:32.104Z,99782.46
2023-01-20T15:01:01.117Z,99788.08
2023-01-20T15:03:29.415Z,99792.19
2023-01-20T15:06:12.363Z,99796.33
2023-01-20T15:08:40.391Z,99793.11
2023-01-20T15:11:12.772Z,99792.72
2023-01-20T15:13:41.013Z,99789.16
2023-01-20T15:16:16.789Z,99786.30
2023-01-20T15:18:43.767Z,99786.56
2023-01-20T15:21:23.089Z,99783.50
2023-01-20T15:23:52.795Z,99782.91
2023-01-20T15:26:25.829Z,99778.30
2023-01-20T15:28:52.981Z,99778.23
2023-01-20T15:31:20.377Z,99778.69
2023-01-20T15:33:47.891Z,99778.79
2023-01-20T15:36:27.994Z,99779.27
2023-01-20T15:38:55.127Z,99784.06
2023-01-20T15:41:25.247Z,99783.14
2023-01-20T15:43:52.696Z,99786.66
2023-01-20T15:46:21.646Z,99789.47
2023-01-20T15:48:56.258Z,99792.98
2023-01-20T15:51:24.435Z,99794.22
2023-01-20T15:53:51.309Z,99793.05
2023-01-20T15:56:28.166Z,99801.70
2023-01-20T15:58:55.143Z,99800.02
2023-01-20T16:01:25.467Z,99799.71
2023-01-20T16:03:53.159Z,99801.87
2023-01-20T16:06:20.282Z,99803.24
2023-01-20T16:08:48.453Z,99801.48
2023-01-20T16:11:16.088Z,99799.32
2023-01-20T16:13:43.054Z,99800.81
2023-01-20T16:16:18.494Z,99806.77
2023-01-20T16:18:45.376Z,99809.22
2023-01-20T16:21:17.029Z,99805.86
2023-01-20T16:23:44.024Z,99808.86
2023-01-20T16:26:27.985Z,99811.83
2023-01-20T16:28:56.245Z,99814.09
2023-01-20T16:31:23.844Z,99813.70
2023-01-20T16:33:52.118Z,99812.52
2023-01-20T16:36:20.002Z,99812.52
2023-01-20T16:38:48.612Z,99809.77
2023-01-20T16:41:26.226Z,99816.08
2023-01-20T16:43:53.852Z,99817.20
2023-01-20T16:46:22.832Z,99817.16
2023-01-20T16:48:49.924Z,99814.16
2023-01-20T16:51:18.886Z,99818.52
2023-01-20T16:53:45.856Z,99823.28
2023-01-20T16:56:20.039Z,99825.30
2023-01-20T16:58:51.770Z,99825.36
2023-01-20T17:01:24.041Z,99821.71
2023-01-20T17:03:52.136Z,99827.55
2023-01-20T17:06:21.090Z,99829.58
2023-01-20T17:08:49.801Z,99834.12
2023-01-20T17:11:22.699Z,99835.61
2023-01-20T17:13:50.800Z,99835.34
2023-01-20T17:17:09.089Z,99835.80
2023-01-20T17:19:38.815Z,99839.85
2023-01-20T17:22:05.819Z,99840.30
2023-01-20T17:24:33.228Z,99843.39
2023-01-20T17:27:00.037Z,99846.22
2023-01-20T17:29:27.542Z,99849.56
2023-01-20T17:32:00.748Z,99845.89
2023-01-20T17:34:27.682Z,99847.77
2023-01-20T17:36:54.493Z,99849.30
2023-01-20T17:39:21.409Z,99853.61
2023-01-20T17:41:48.787Z,99854.03
2023-01-20T17:44:15.786Z,99851.45
2023-01-20T17:46:42.671Z,99856.19
2023-01-20T17:55:35.840Z,99852.59
2023-01-20T17:58:02.937Z,99852.30
2023-01-20T18:00:29.788Z,99851.09
2023-01-20T18:02:57.481Z,99849.56
2023-01-20T18:05:24.514Z,99853.17
2023-01-20T18:07:51.457Z,99855.60
2023-01-20T18:11:35.956Z,99849.45
